sensor_id;sensor_type;location;lat;lon;timestamp;temperature;humidity
11497;DHT22;5805;51.542;7.230;2023-03-16T00:02:24;6.20;98.40
11497;DHT22;5805;51.542;7.230;2023-03-16T00:04:49;6.30;98.40
11497;DHT22;5805;51.542;7.230;2023-03-16T00:07:15;6.30;98.50
11497;DHT22;5805;51.542;7.230;2023-03-16T00:09:42;6.20;98.40
11497;DHT22;5805;51.542;7.230;2023-03-16T00:12:12;6.30;98.40
11497;DHT22;5805;51.542;7.230;2023-03-16T00:14:38;6.30;98.30
11497;DHT22;5805;51.542;7.230;2023-03-16T00:17:04;6.20;98.40
11497;DHT22;5805;51.542;7.230;2023-03-16T00:19:30;6.20;98.40
11497;DHT22;5805;51.542;7.230;2023-03-16T00:21:56;6.20;98.40
11497;DHT22;5805;51.542;7.230;2023-03-16T00:24:21;6.20;98.50
11497;DHT22;5805;51.542;7.230;2023-03-16T00:26:48;6.10;98.70
11497;DHT22;5805;51.542;7.230;2023-03-16T00:29:14;6.10;98.80
11497;DHT22;5805;51.542;7.230;2023-03-16T00:31:40;6.60;99.00
11497;DHT22;5805;51.542;7.230;2023-03-16T00:34:06;6.10;99.00
11497;DHT22;5805;51.542;7.230;2023-03-16T00:36:32;6.10;99.00
11497;DHT22;5805;51.542;7.230;2023-03-16T00:38:57;6.10;99.20
11497;DHT22;5805;51.542;7.230;2023-03-16T00:41:23;6.30;99.40
11497;DHT22;5805;51.542;7.230;2023-03-16T00:43:50;6.00;99.10
11497;DHT22;5805;51.542;7.230;2023-03-16T00:46:16;6.00;99.40
11497;DHT22;5805;51.542;7.230;2023-03-16T00:48:44;6.10;99.40
11497;DHT22;5805;51.542;7.230;2023-03-16T00:51:12;6.10;99.50
11497;DHT22;5805;51.542;7.230;2023-03-16T00:53:39;6.00;99.80
11497;DHT22;5805;51.542;7.230;2023-03-16T00:56:06;6.00;99.90
11497;DHT22;5805;51.542;7.230;2023-03-16T00:58:32;6.00;99.90
11497;DHT22;5805;51.542;7.230;2023-03-16T01:00:59;6.00;99.90
11497;DHT22;5805;51.542;7.230;2023-03-16T01:03:25;6.00;99.90
11497;DHT22;5805;51.542;7.230;2023-03-16T01:05:50;6.00;99.90
11497;DHT22;5805;51.542;7.230;2023-03-16T01:08:16;6.10;99.90
11497;DHT22;5805;51.542;7.230;2023-03-16T01:10:42;7.00;99.90
11497;DHT22;5805;51.542;7.230;2023-03-16T01:13:07;6.10;99.90
11497;DHT22;5805;51.542;7.230;2023-03-16T01:15:33;6.10;99.90
11497;DHT22;5805;51.542;7.230;2023-03-16T01:18:00;6.00;99.90
11497;DHT22;5805;51.542;7.230;2023-03-16T01:20:26;6.10;99.90
11497;DHT22;5805;51.542;7.230;2023-03-16T01:22:52;6.90;99.90
11497;DHT22;5805;51.542;7.230;2023-03-16T01:25:18;6.10;99.90
11497;DHT22;5805;51.542;7.230;2023-03-16T01:27:43;6.10;99.90
11497;DHT22;5805;51.542;7.230;2023-03-16T01:30:10;6.10;99.90
11497;DHT22;5805;51.542;7.230;2023-03-16T01:32:36;6.10;99.90
11497;DHT22;5805;51.542;7.230;2023-03-16T01:35:04;6.10;99.90
11497;DHT22;5805;51.542;7.230;2023-03-16T01:37:30;6.10;99.90
11497;DHT22;5805;51.542;7.230;2023-03-16T01:39:55;6.20;99.90
11497;DHT22;5805;51.542;7.230;2023-03-16T01:42:21;6.20;99.90
11497;DHT22;5805;51.542;7.230;2023-03-16T01:44:53;6.20;99.90
11497;DHT22;5805;51.542;7.230;2023-03-16T01:47:18;6.20;99.90
11497;DHT22;5805;51.542;7.230;2023-03-16T01:49:44;6.20;99.90
11497;DHT22;5805;51.542;7.230;2023-03-16T01:52:14;6.20;99.90
11497;DHT22;5805;51.542;7.230;2023-03-16T01:54:43;6.20;99.90
11497;DHT22;5805;51.542;7.230;2023-03-16T01:57:11;6.20;99.90
11497;DHT22;5805;51.542;7.230;2023-03-16T01:59:42;6.20;99.90
11497;DHT22;5805;51.542;7.230;2023-03-16T02:02:10;6.20;99.90
11497;DHT22;5805;51.542;7.230;2023-03-16T02:04:44;6.20;99.90
11497;DHT22;5805;51.542;7.230;2023-03-16T02:07:13;6.20;99.90
11497;DHT22;5805;51.542;7.230;2023-03-16T02:09:42;6.20;99.80
11497;DHT22;5805;51.542;7.230;2023-03-16T02:12:09;6.20;99.90
11497;DHT22;5805;51.542;7.230;2023-03-16T02:14:35;6.20;99.90
11497;DHT22;5805;51.542;7.230;2023-03-16T02:17:01;6.20;99.90
11497;DHT22;5805;51.542;7.230;2023-03-16T02:19:34;6.20;99.70
11497;DHT22;5805;51.542;7.230;2023-03-16T02:22:05;6.10;99.60
11497;DHT22;5805;51.542;7.230;2023-03-16T02:24:32;6.20;99.60
11497;DHT22;5805;51.542;7.230;2023-03-16T02:27:01;6.10;99.50
11497;DHT22;5805;51.542;7.230;2023-03-16T02:32:19;6.00;99.20
11497;DHT22;5805;51.542;7.230;2023-03-16T02:34:46;6.00;99.20
11497;DHT22;5805;51.542;7.230;2023-03-16T02:37:11;6.00;99.00
11497;DHT22;5805;51.542;7.230;2023-03-16T02:39:37;6.50;99.20
11497;DHT22;5805;51.542;7.230;2023-03-16T02:42:03;6.00;99.20
11497;DHT22;5805;51.542;7.230;2023-03-16T02:44:32;6.00;98.90
11497;DHT22;5805;51.542;7.230;2023-03-16T02:47:01;6.00;99.10
11497;DHT22;5805;51.542;7.230;2023-03-16T02:49:34;6.00;98.80
11497;DHT22;5805;51.542;7.230;2023-03-16T02:52:01;6.00;98.80
11497;DHT22;5805;51.542;7.230;2023-03-16T02:54:26;6.00;98.30
11497;DHT22;5805;51.542;7.230;2023-03-16T02:56:52;6.50;98.40
11497;DHT22;5805;51.542;7.230;2023-03-16T02:59:18;6.90;98.30
11497;DHT22;5805;51.542;7.230;2023-03-16T03:01:43;5.90;98.00
11497;DHT22;5805;51.542;7.230;2023-03-16T03:04:09;5.90;98.10
11497;DHT22;5805;51.542;7.230;2023-03-16T03:06:36;5.90;98.00
11497;DHT22;5805;51.542;7.230;2023-03-16T03:09:04;5.90;98.00
11497;DHT22;5805;51.542;7.230;2023-03-16T03:11:30;5.90;98.10
11497;DHT22;5805;51.542;7.230;2023-03-16T03:13:56;5.90;98.10
11497;DHT22;5805;51.542;7.230;2023-03-16T03:16:22;6.00;98.30
11497;DHT22;5805;51.542;7.230;2023-03-16T03:18:48;6.00;97.90
11497;DHT22;5805;51.542;7.230;2023-03-16T03:21:13;6.00;97.70
11497;DHT22;5805;51.542;7.230;2023-03-16T03:23:41;6.10;97.80
11497;DHT22;5805;51.542;7.230;2023-03-16T03:26:07;6.10;97.70
11497;DHT22;5805;51.542;7.230;2023-03-16T03:28:32;6.10;97.30
11497;DHT22;5805;51.542;7.230;2023-03-16T03:30:58;6.40;97.70
11497;DHT22;5805;51.542;7.230;2023-03-16T03:33:24;6.10;97.50
11497;DHT22;5805;51.542;7.230;2023-03-16T03:35:53;6.10;97.60
11497;DHT22;5805;51.542;7.230;2023-03-16T03:38:19;6.10;97.80
11497;DHT22;5805;51.542;7.230;2023-03-16T03:40:48;6.10;97.60
11497;DHT22;5805;51.542;7.230;2023-03-16T03:43:13;6.20;97.70
11497;DHT22;5805;51.542;7.230;2023-03-16T03:45:39;6.20;97.80
11497;DHT22;5805;51.542;7.230;2023-03-16T03:48:05;6.20;97.70
11497;DHT22;5805;51.542;7.230;2023-03-16T03:50:31;6.20;97.70
11497;DHT22;5805;51.542;7.230;2023-03-16T03:52:56;6.20;97.60
11497;DHT22;5805;51.542;7.230;2023-03-16T03:55:22;6.10;97.60
11497;DHT22;5805;51.542;7.230;2023-03-16T03:57:49;6.50;97.90
11497;DHT22;5805;51.542;7.230;2023-03-16T04:00:15;6.20;97.80
11497;DHT22;5805;51.542;7.230;2023-03-16T04:02:41;6.20;97.80
11497;DHT22;5805;51.542;7.230;2023-03-16T04:05:07;6.20;97.90
11497;DHT22;5805;51.542;7.230;2023-03-16T04:07:33;6.10;98.00
11497;DHT22;5805;51.542;7.230;2023-03-16T04:09:59;6.10;97.90
11497;DHT22;5805;51.542;7.230;2023-03-16T04:12:25;6.10;98.00
11497;DHT22;5805;51.542;7.230;2023-03-16T04:14:52;6.10;97.90
11497;DHT22;5805;51.542;7.230;2023-03-16T04:17:17;6.20;98.00
11497;DHT22;5805;51.542;7.230;2023-03-16T04:19:43;6.10;98.00
11497;DHT22;5805;51.542;7.230;2023-03-16T04:22:09;6.20;98.00
11497;DHT22;5805;51.542;7.230;2023-03-16T04:24:35;6.20;98.10
11497;DHT22;5805;51.542;7.230;2023-03-16T04:27:00;6.20;98.10
11497;DHT22;5805;51.542;7.230;2023-03-16T04:29:26;6.20;97.90
11497;DHT22;5805;51.542;7.230;2023-03-16T04:31:53;6.20;98.00
11497;DHT22;5805;51.542;7.230;2023-03-16T04:34:19;6.20;97.90
11497;DHT22;5805;51.542;7.230;2023-03-16T04:36:45;6.20;98.10
11497;DHT22;5805;51.542;7.230;2023-03-16T04:39:10;6.20;98.00
11497;DHT22;5805;51.542;7.230;2023-03-16T04:41:36;6.10;98.20
11497;DHT22;5805;51.542;7.230;2023-03-16T04:44:02;6.10;98.40
11497;DHT22;5805;51.542;7.230;2023-03-16T04:46:27;6.10;98.50
11497;DHT22;5805;51.542;7.230;2023-03-16T04:48:55;6.20;98.30
11497;DHT22;5805;51.542;7.230;2023-03-16T04:51:20;6.20;98.50
11497;DHT22;5805;51.542;7.230;2023-03-16T04:53:46;6.20;98.60
11497;DHT22;5805;51.542;7.230;2023-03-16T04:56:12;6.20;98.80
11497;DHT22;5805;51.542;7.230;2023-03-16T04:58:37;6.20;98.80
11497;DHT22;5805;51.542;7.230;2023-03-16T05:01:03;6.20;98.80
11497;DHT22;5805;51.542;7.230;2023-03-16T05:03:29;6.20;99.00
11497;DHT22;5805;51.542;7.230;2023-03-16T05:05:56;6.20;99.30
11497;DHT22;5805;51.542;7.230;2023-03-16T05:08:21;6.20;99.30
11497;DHT22;5805;51.542;7.230;2023-03-16T05:10:47;6.20;99.20
11497;DHT22;5805;51.542;7.230;2023-03-16T05:13:13;6.20;99.40
11497;DHT22;5805;51.542;7.230;2023-03-16T05:15:38;6.20;99.60
11497;DHT22;5805;51.542;7.230;2023-03-16T05:18:04;6.80;99.80
11497;DHT22;5805;51.542;7.230;2023-03-16T05:20:30;6.30;99.70
11497;DHT22;5805;51.542;7.230;2023-03-16T05:22:57;6.20;99.80
11497;DHT22;5805;51.542;7.230;2023-03-16T05:25:23;6.20;99.90
11497;DHT22;5805;51.542;7.230;2023-03-16T05:27:51;6.30;99.90
11497;DHT22;5805;51.542;7.230;2023-03-16T05:30:17;6.90;99.90
11497;DHT22;5805;51.542;7.230;2023-03-16T05:32:44;6.30;99.90
11497;DHT22;5805;51.542;7.230;2023-03-16T05:35:10;6.30;99.90
11497;DHT22;5805;51.542;7.230;2023-03-16T05:37:36;6.30;99.90
11497;DHT22;5805;51.542;7.230;2023-03-16T05:40:04;8.70;99.90
11497;DHT22;5805;51.542;7.230;2023-03-16T05:42:30;6.40;99.90
11497;DHT22;5805;51.542;7.230;2023-03-16T05:44:56;6.40;99.90
11497;DHT22;5805;51.542;7.230;2023-03-16T05:47:21;7.10;99.90
11497;DHT22;5805;51.542;7.230;2023-03-16T05:49:47;6.40;99.90
11497;DHT22;5805;51.542;7.230;2023-03-16T05:52:13;6.50;99.90
11497;DHT22;5805;51.542;7.230;2023-03-16T05:54:38;7.00;99.90
11497;DHT22;5805;51.542;7.230;2023-03-16T05:57:05;6.60;99.90
11497;DHT22;5805;51.542;7.230;2023-03-16T05:59:31;7.00;99.90
11497;DHT22;5805;51.542;7.230;2023-03-16T06:01:57;6.70;99.90
11497;DHT22;5805;51.542;7.230;2023-03-16T06:04:23;7.20;99.90
11497;DHT22;5805;51.542;7.230;2023-03-16T06:06:49;6.80;99.80
11497;DHT22;5805;51.542;7.230;2023-03-16T06:09:14;6.80;99.50
11497;DHT22;5805;51.542;7.230;2023-03-16T06:11:40;6.80;99.20
11497;DHT22;5805;51.542;7.230;2023-03-16T06:14:07;6.90;98.80
11497;DHT22;5805;51.542;7.230;2023-03-16T06:16:33;6.90;98.90
11497;DHT22;5805;51.542;7.230;2023-03-16T06:18:58;7.10;99.00
11497;DHT22;5805;51.542;7.230;2023-03-16T06:21:24;7.00;98.90
11497;DHT22;5805;51.542;7.230;2023-03-16T06:23:50;7.00;98.50
11497;DHT22;5805;51.542;7.230;2023-03-16T06:26:15;7.00;98.40
11497;DHT22;5805;51.542;7.230;2023-03-16T06:28:41;7.00;98.10
11497;DHT22;5805;51.542;7.230;2023-03-16T06:31:08;7.00;97.50
11497;DHT22;5805;51.542;7.230;2023-03-16T06:33:34;7.70;98.00
11497;DHT22;5805;51.542;7.230;2023-03-16T06:35:59;7.10;97.80
11497;DHT22;5805;51.542;7.230;2023-03-16T06:38:25;7.20;97.40
11497;DHT22;5805;51.542;7.230;2023-03-16T06:40:51;7.60;97.40
11497;DHT22;5805;51.542;7.230;2023-03-16T06:43:17;7.20;96.90
11497;DHT22;5805;51.542;7.230;2023-03-16T06:45:43;7.30;97.10
11497;DHT22;5805;51.542;7.230;2023-03-16T06:48:10;7.30;96.80
11497;DHT22;5805;51.542;7.230;2023-03-16T06:50:36;7.40;96.60
11497;DHT22;5805;51.542;7.230;2023-03-16T06:53:02;7.40;96.40
11497;DHT22;5805;51.542;7.230;2023-03-16T06:55:27;7.50;96.10
11497;DHT22;5805;51.542;7.230;2023-03-16T06:57:53;7.80;95.50
11497;DHT22;5805;51.542;7.230;2023-03-16T07:00:19;7.80;95.30
11497;DHT22;5805;51.542;7.230;2023-03-16T07:02:45;8.10;94.50
11497;DHT22;5805;51.542;7.230;2023-03-16T07:05:12;8.30;93.70
11497;DHT22;5805;51.542;7.230;2023-03-16T07:07:38;8.40;93.30
11497;DHT22;5805;51.542;7.230;2023-03-16T07:10:04;8.40;92.30
11497;DHT22;5805;51.542;7.230;2023-03-16T07:12:30;8.40;92.30
11497;DHT22;5805;51.542;7.230;2023-03-16T07:14:56;8.30;92.10
11497;DHT22;5805;51.542;7.230;2023-03-16T07:17:21;8.30;92.50
11497;DHT22;5805;51.542;7.230;2023-03-16T07:19:47;8.30;92.60
11497;DHT22;5805;51.542;7.230;2023-03-16T07:22:14;8.20;92.80
11497;DHT22;5805;51.542;7.230;2023-03-16T07:24:40;8.30;92.90
11497;DHT22;5805;51.542;7.230;2023-03-16T07:27:05;8.40;92.30
11497;DHT22;5805;51.542;7.230;2023-03-16T07:29:31;8.40;91.80
11497;DHT22;5805;51.542;7.230;2023-03-16T07:31:57;8.50;91.80
11497;DHT22;5805;51.542;7.230;2023-03-16T07:34:22;8.50;91.90
11497;DHT22;5805;51.542;7.230;2023-03-16T07:36:49;8.60;91.20
11497;DHT22;5805;51.542;7.230;2023-03-16T07:39:16;8.60;91.40
11497;DHT22;5805;51.542;7.230;2023-03-16T07:41:42;8.70;90.90
11497;DHT22;5805;51.542;7.230;2023-03-16T07:44:08;8.90;90.80
11497;DHT22;5805;51.542;7.230;2023-03-16T07:46:34;9.00;89.40
11497;DHT22;5805;51.542;7.230;2023-03-16T07:48:59;9.10;87.00
11497;DHT22;5805;51.542;7.230;2023-03-16T07:51:25;9.20;87.00
11497;DHT22;5805;51.542;7.230;2023-03-16T07:53:51;9.30;84.70
11497;DHT22;5805;51.542;7.230;2023-03-16T07:56:18;9.40;83.80
11497;DHT22;5805;51.542;7.230;2023-03-16T07:58:44;9.40;83.70
11497;DHT22;5805;51.542;7.230;2023-03-16T08:01:09;9.30;82.90
11497;DHT22;5805;51.542;7.230;2023-03-16T08:03:35;9.40;84.40
11497;DHT22;5805;51.542;7.230;2023-03-16T08:06:01;9.50;83.40
11497;DHT22;5805;51.542;7.230;2023-03-16T08:08:26;9.60;82.60
11497;DHT22;5805;51.542;7.230;2023-03-16T08:10:52;9.70;82.90
11497;DHT22;5805;51.542;7.230;2023-03-16T08:13:20;9.80;81.20
11497;DHT22;5805;51.542;7.230;2023-03-16T08:15:46;10.00;80.10
11497;DHT22;5805;51.542;7.230;2023-03-16T08:18:12;10.10;77.80
11497;DHT22;5805;51.542;7.230;2023-03-16T08:20:37;10.20;77.20
11497;DHT22;5805;51.542;7.230;2023-03-16T08:23:03;10.30;78.70
11497;DHT22;5805;51.542;7.230;2023-03-16T08:25:29;10.30;75.10
11497;DHT22;5805;51.542;7.230;2023-03-16T08:27:54;10.30;76.40
11497;DHT22;5805;51.542;7.230;2023-03-16T08:30:21;10.40;76.20
11497;DHT22;5805;51.542;7.230;2023-03-16T08:32:47;10.40;75.80
11497;DHT22;5805;51.542;7.230;2023-03-16T08:35:14;10.40;75.10
11497;DHT22;5805;51.542;7.230;2023-03-16T08:37:40;10.50;74.40
11497;DHT22;5805;51.542;7.230;2023-03-16T08:40:07;10.50;73.50
11497;DHT22;5805;51.542;7.230;2023-03-16T08:42:32;10.40;73.20
11497;DHT22;5805;51.542;7.230;2023-03-16T08:44:58;10.50;74.20
11497;DHT22;5805;51.542;7.230;2023-03-16T08:47:25;10.40;72.80
11497;DHT22;5805;51.542;7.230;2023-03-16T08:49:51;10.50;72.80
11497;DHT22;5805;51.542;7.230;2023-03-16T08:52:17;10.50;72.60
11497;DHT22;5805;51.542;7.230;2023-03-16T08:54:42;10.50;74.10
11497;DHT22;5805;51.542;7.230;2023-03-16T08:57:09;10.60;73.30
11497;DHT22;5805;51.542;7.230;2023-03-16T08:59:34;10.60;73.00
11497;DHT22;5805;51.542;7.230;2023-03-16T09:02:00;10.60;72.80
11497;DHT22;5805;51.542;7.230;2023-03-16T09:04:27;10.50;71.90
11497;DHT22;5805;51.542;7.230;2023-03-16T09:06:53;10.40;72.20
11497;DHT22;5805;51.542;7.230;2023-03-16T09:09:19;10.30;73.20
11497;DHT22;5805;51.542;7.230;2023-03-16T09:11:44;10.20;73.20
11497;DHT22;5805;51.542;7.230;2023-03-16T09:14:10;10.10;74.30
11497;DHT22;5805;51.542;7.230;2023-03-16T09:16:36;10.00;75.10
11497;DHT22;5805;51.542;7.230;2023-03-16T09:19:02;10.00;76.90
11497;DHT22;5805;51.542;7.230;2023-03-16T09:21:29;9.90;75.90
11497;DHT22;5805;51.542;7.230;2023-03-16T09:23:54;9.80;77.10
11497;DHT22;5805;51.542;7.230;2023-03-16T09:26:20;9.80;78.40
11497;DHT22;5805;51.542;7.230;2023-03-16T09:28:46;9.80;79.20
11497;DHT22;5805;51.542;7.230;2023-03-16T09:31:16;9.90;78.20
11497;DHT22;5805;51.542;7.230;2023-03-16T09:33:42;10.00;78.70
11497;DHT22;5805;51.542;7.230;2023-03-16T09:36:07;10.00;77.90
11497;DHT22;5805;51.542;7.230;2023-03-16T09:38:35;10.10;78.10
11497;DHT22;5805;51.542;7.230;2023-03-16T09:41:02;10.10;77.10
11497;DHT22;5805;51.542;7.230;2023-03-16T09:43:47;10.10;77.80
11497;DHT22;5805;51.542;7.230;2023-03-16T09:46:18;10.30;77.90
11497;DHT22;5805;51.542;7.230;2023-03-16T09:48:48;10.40;77.90
11497;DHT22;5805;51.542;7.230;2023-03-16T09:51:18;10.60;78.20
11497;DHT22;5805;51.542;7.230;2023-03-16T09:53:48;10.80;75.80
11497;DHT22;5805;51.542;7.230;2023-03-16T09:56:17;11.20;75.20
11497;DHT22;5805;51.542;7.230;2023-03-16T09:58:44;11.30;72.80
11497;DHT22;5805;51.542;7.230;2023-03-16T10:01:14;11.50;70.90
11497;DHT22;5805;51.542;7.230;2023-03-16T10:03:57;11.60;68.40
11497;DHT22;5805;51.542;7.230;2023-03-16T10:06:26;11.60;67.80
11497;DHT22;5805;51.542;7.230;2023-03-16T10:09:02;11.70;69.60
11497;DHT22;5805;51.542;7.230;2023-03-16T10:11:35;11.70;69.10
11497;DHT22;5805;51.542;7.230;2023-03-16T10:14:07;11.80;69.10
11497;DHT22;5805;51.542;7.230;2023-03-16T10:16:37;11.80;69.00
11497;DHT22;5805;51.542;7.230;2023-03-16T10:19:11;11.80;68.30
11497;DHT22;5805;51.542;7.230;2023-03-16T10:21:39;11.80;69.20
11497;DHT22;5805;51.542;7.230;2023-03-16T10:24:14;11.80;68.20
11497;DHT22;5805;51.542;7.230;2023-03-16T10:26:42;11.80;68.70
11497;DHT22;5805;51.542;7.230;2023-03-16T10:29:10;11.70;69.20
11497;DHT22;5805;51.542;7.230;2023-03-16T10:31:37;11.70;70.00
11497;DHT22;5805;51.542;7.230;2023-03-16T10:34:05;11.80;70.20
11497;DHT22;5805;51.542;7.230;2023-03-16T10:36:33;11.60;71.30
11497;DHT22;5805;51.542;7.230;2023-03-16T10:39:00;11.60;72.00
11497;DHT22;5805;51.542;7.230;2023-03-16T10:41:29;11.70;72.30
11497;DHT22;5805;51.542;7.230;2023-03-16T10:43:56;11.70;72.60
11497;DHT22;5805;51.542;7.230;2023-03-16T10:46:23;11.70;72.10
11497;DHT22;5805;51.542;7.230;2023-03-16T10:48:53;11.70;72.20
11497;DHT22;5805;51.542;7.230;2023-03-16T10:51:24;11.80;72.70
11497;DHT22;5805;51.542;7.230;2023-03-16T10:53:51;11.90;73.10
11497;DHT22;5805;51.542;7.230;2023-03-16T10:56:19;12.00;73.40
11497;DHT22;5805;51.542;7.230;2023-03-16T10:58:47;11.90;72.20
11497;DHT22;5805;51.542;7.230;2023-03-16T11:01:17;11.80;72.40
11497;DHT22;5805;51.542;7.230;2023-03-16T11:03:47;12.00;73.40
11497;DHT22;5805;51.542;7.230;2023-03-16T11:06:18;11.90;74.70
11497;DHT22;5805;51.542;7.230;2023-03-16T11:08:44;12.00;74.60
11497;DHT22;5805;51.542;7.230;2023-03-16T11:11:13;12.20;74.40
11497;DHT22;5805;51.542;7.230;2023-03-16T11:13:43;12.20;72.70
11497;DHT22;5805;51.542;7.230;2023-03-16T11:16:22;12.10;71.40
11497;DHT22;5805;51.542;7.230;2023-03-16T11:18:52;12.00;72.30
11497;DHT22;5805;51.542;7.230;2023-03-16T11:21:26;12.00;72.80
11497;DHT22;5805;51.542;7.230;2023-03-16T11:23:55;12.00;74.10
11497;DHT22;5805;51.542;7.230;2023-03-16T11:26:25;12.10;74.90
11497;DHT22;5805;51.542;7.230;2023-03-16T11:28:58;12.20;74.20
11497;DHT22;5805;51.542;7.230;2023-03-16T11:31:35;12.40;73.60
11497;DHT22;5805;51.542;7.230;2023-03-16T11:34:02;12.60;71.00
11497;DHT22;5805;51.542;7.230;2023-03-16T11:36:38;12.50;72.10
11497;DHT22;5805;51.542;7.230;2023-03-16T11:39:13;12.60;72.00
11497;DHT22;5805;51.542;7.230;2023-03-16T11:41:53;12.80;71.20
11497;DHT22;5805;51.542;7.230;2023-03-16T11:44:27;13.00;69.00
11497;DHT22;5805;51.542;7.230;2023-03-16T11:47:05;13.00;69.00
11497;DHT22;5805;51.542;7.230;2023-03-16T11:49:46;13.00;68.40
11497;DHT22;5805;51.542;7.230;2023-03-16T11:52:19;12.90;67.20
11497;DHT22;5805;51.542;7.230;2023-03-16T11:54:55;12.80;68.40
11497;DHT22;5805;51.542;7.230;2023-03-16T11:57:36;12.80;69.50
11497;DHT22;5805;51.542;7.230;2023-03-16T12:00:12;12.90;70.30
11497;DHT22;5805;51.542;7.230;2023-03-16T12:03:19;13.00;68.30
11497;DHT22;5805;51.542;7.230;2023-03-16T12:05:57;13.00;66.50
11497;DHT22;5805;51.542;7.230;2023-03-16T12:11:21;13.20;64.70
11497;DHT22;5805;51.542;7.230;2023-03-16T12:13:59;13.40;66.00
11497;DHT22;5805;51.542;7.230;2023-03-16T12:16:30;13.50;64.00
11497;DHT22;5805;51.542;7.230;2023-03-16T12:19:01;13.60;63.60
11497;DHT22;5805;51.542;7.230;2023-03-16T12:21:30;13.60;62.10
11497;DHT22;5805;51.542;7.230;2023-03-16T12:24:00;13.40;61.90
11497;DHT22;5805;51.542;7.230;2023-03-16T12:26:28;13.40;62.20
11497;DHT22;5805;51.542;7.230;2023-03-16T12:28:56;13.50;63.40
11497;DHT22;5805;51.542;7.230;2023-03-16T12:31:29;13.50;61.50
11497;DHT22;5805;51.542;7.230;2023-03-16T12:34:07;13.50;61.00
11497;DHT22;5805;51.542;7.230;2023-03-16T12:37:00;13.50;61.40
11497;DHT22;5805;51.542;7.230;2023-03-16T12:42:41;13.40;59.80
11497;DHT22;5805;51.542;7.230;2023-03-16T12:45:13;13.40;60.20
11497;DHT22;5805;51.542;7.230;2023-03-16T12:47:48;13.60;61.20
11497;DHT22;5805;51.542;7.230;2023-03-16T12:50:18;13.60;59.30
11497;DHT22;5805;51.542;7.230;2023-03-16T12:52:46;13.70;57.80
11497;DHT22;5805;51.542;7.230;2023-03-16T12:55:14;13.70;58.10
11497;DHT22;5805;51.542;7.230;2023-03-16T12:57:41;13.70;57.30
11497;DHT22;5805;51.542;7.230;2023-03-16T13:00:09;13.70;57.40
11497;DHT22;5805;51.542;7.230;2023-03-16T13:02:37;13.70;56.80
11497;DHT22;5805;51.542;7.230;2023-03-16T13:05:08;14.00;57.60
11497;DHT22;5805;51.542;7.230;2023-03-16T13:07:36;13.80;58.10
11497;DHT22;5805;51.542;7.230;2023-03-16T13:10:07;13.70;57.40
11497;DHT22;5805;51.542;7.230;2023-03-16T13:12:34;13.80;57.50
11497;DHT22;5805;51.542;7.230;2023-03-16T13:15:01;13.70;57.00
11497;DHT22;5805;51.542;7.230;2023-03-16T13:17:29;13.80;57.40
11497;DHT22;5805;51.542;7.230;2023-03-16T13:20:05;13.80;57.80
11497;DHT22;5805;51.542;7.230;2023-03-16T13:22:50;13.90;57.60
11497;DHT22;5805;51.542;7.230;2023-03-16T13:25:19;14.00;57.60
11497;DHT22;5805;51.542;7.230;2023-03-16T13:27:47;14.00;57.50
11497;DHT22;5805;51.542;7.230;2023-03-16T13:30:19;14.20;56.50
11497;DHT22;5805;51.542;7.230;2023-03-16T13:32:45;14.00;56.50
11497;DHT22;5805;51.542;7.230;2023-03-16T13:35:14;14.00;56.50
11497;DHT22;5805;51.542;7.230;2023-03-16T13:37:41;14.10;56.60
11497;DHT22;5805;51.542;7.230;2023-03-16T13:40:19;14.20;58.30
11497;DHT22;5805;51.542;7.230;2023-03-16T13:42:46;14.20;56.90
11497;DHT22;5805;51.542;7.230;2023-03-16T13:45:14;14.30;57.40
11497;DHT22;5805;51.542;7.230;2023-03-16T13:47:41;14.30;56.10
11497;DHT22;5805;51.542;7.230;2023-03-16T13:50:11;14.20;55.60
11497;DHT22;5805;51.542;7.230;2023-03-16T13:52:38;14.10;56.50
11497;DHT22;5805;51.542;7.230;2023-03-16T13:55:09;14.10;56.50
11497;DHT22;5805;51.542;7.230;2023-03-16T13:57:40;13.90;56.50
11497;DHT22;5805;51.542;7.230;2023-03-16T14:00:14;13.80;56.90
11497;DHT22;5805;51.542;7.230;2023-03-16T14:02:42;13.60;57.20
11497;DHT22;5805;51.542;7.230;2023-03-16T14:05:09;13.50;57.30
11497;DHT22;5805;51.542;7.230;2023-03-16T14:07:37;13.30;57.90
11497;DHT22;5805;51.542;7.230;2023-03-16T14:10:03;13.20;58.90
11497;DHT22;5805;51.542;7.230;2023-03-16T14:12:29;13.20;60.00
11497;DHT22;5805;51.542;7.230;2023-03-16T14:14:56;13.20;60.00
11497;DHT22;5805;51.542;7.230;2023-03-16T14:17:22;13.20;60.00
11497;DHT22;5805;51.542;7.230;2023-03-16T14:19:50;13.20;60.50
11497;DHT22;5805;51.542;7.230;2023-03-16T14:22:18;13.20;60.70
11497;DHT22;5805;51.542;7.230;2023-03-16T14:24:46;13.30;61.00
11497;DHT22;5805;51.542;7.230;2023-03-16T14:27:24;13.30;61.00
11497;DHT22;5805;51.542;7.230;2023-03-16T14:29:53;13.30;61.00
11497;DHT22;5805;51.542;7.230;2023-03-16T14:32:24;13.30;61.30
11497;DHT22;5805;51.542;7.230;2023-03-16T14:34:50;13.30;61.50
11497;DHT22;5805;51.542;7.230;2023-03-16T14:37:16;13.30;61.10
11497;DHT22;5805;51.542;7.230;2023-03-16T14:39:42;13.30;61.40
11497;DHT22;5805;51.542;7.230;2023-03-16T14:42:13;13.30;61.90
11497;DHT22;5805;51.542;7.230;2023-03-16T14:44:41;13.40;62.60
11497;DHT22;5805;51.542;7.230;2023-03-16T14:47:16;13.50;62.90
11497;DHT22;5805;51.542;7.230;2023-03-16T14:49:47;13.50;63.10
11497;DHT22;5805;51.542;7.230;2023-03-16T14:52:16;13.50;63.40
11497;DHT22;5805;51.542;7.230;2023-03-16T14:54:46;13.40;62.90
11497;DHT22;5805;51.542;7.230;2023-03-16T14:57:15;13.50;63.00
11497;DHT22;5805;51.542;7.230;2023-03-16T14:59:41;13.40;63.80
11497;DHT22;5805;51.542;7.230;2023-03-16T15:02:15;13.40;63.90
11497;DHT22;5805;51.542;7.230;2023-03-16T15:04:41;13.40;64.70
11497;DHT22;5805;51.542;7.230;2023-03-16T15:07:21;13.40;64.20
11497;DHT22;5805;51.542;7.230;2023-03-16T15:09:47;13.40;64.10
11497;DHT22;5805;51.542;7.230;2023-03-16T15:12:14;13.40;65.40
11497;DHT22;5805;51.542;7.230;2023-03-16T15:14:40;13.50;64.90
11497;DHT22;5805;51.542;7.230;2023-03-16T15:17:05;13.50;64.70
11497;DHT22;5805;51.542;7.230;2023-03-16T15:19:31;13.50;64.90
11497;DHT22;5805;51.542;7.230;2023-03-16T15:21:57;13.50;64.80
11497;DHT22;5805;51.542;7.230;2023-03-16T15:24:26;13.50;64.80
11497;DHT22;5805;51.542;7.230;2023-03-16T15:26:51;13.50;64.90
11497;DHT22;5805;51.542;7.230;2023-03-16T15:29:17;13.40;64.70
11497;DHT22;5805;51.542;7.230;2023-03-16T15:31:43;13.40;65.40
11497;DHT22;5805;51.542;7.230;2023-03-16T15:34:09;13.30;65.30
11497;DHT22;5805;51.542;7.230;2023-03-16T15:36:34;13.40;66.00
11497;DHT22;5805;51.542;7.230;2023-03-16T15:39:00;13.30;65.70
11497;DHT22;5805;51.542;7.230;2023-03-16T15:41:27;13.30;66.40
11497;DHT22;5805;51.542;7.230;2023-03-16T15:43:53;13.30;66.70
11497;DHT22;5805;51.542;7.230;2023-03-16T15:46:19;13.30;67.20
11497;DHT22;5805;51.542;7.230;2023-03-16T15:48:44;13.20;67.30
11497;DHT22;5805;51.542;7.230;2023-03-16T15:51:18;13.20;67.40
11497;DHT22;5805;51.542;7.230;2023-03-16T15:53:47;13.20;67.10
11497;DHT22;5805;51.542;7.230;2023-03-16T15:56:15;13.10;67.10
11497;DHT22;5805;51.542;7.230;2023-03-16T15:58:44;13.10;67.60
11497;DHT22;5805;51.542;7.230;2023-03-16T16:01:17;13.10;68.10
11497;DHT22;5805;51.542;7.230;2023-03-16T16:03:44;13.10;68.70
11497;DHT22;5805;51.542;7.230;2023-03-16T16:06:10;13.10;68.80
11497;DHT22;5805;51.542;7.230;2023-03-16T16:08:36;13.10;68.60